sensor_id;sensor_type;location;lat;lon;timestamp;pressure;altitude;pressure_sealevel;temperature;humidity
62655;BME280;48717;55.556;37.816;2023-04-23T00:01:26;99205.88;;;9.14;45.44
62655;BME280;48717;55.556;37.816;2023-04-23T00:03:57;99155.16;;;8.82;45.23
62655;BME280;48717;55.556;37.816;2023-04-23T00:06:25;99204.09;;;9.11;45.74
62655;BME280;48717;55.556;37.816;2023-04-23T00:08:53;99218.13;;;9.09;45.48
62655;BME280;48717;55.556;37.816;2023-04-23T00:11:21;99209.41;;;9.02;45.79
62655;BME280;48717;55.556;37.816;2023-04-23T00:13:49;99224.31;;;9.00;45.27
62655;BME280;48717;55.556;37.816;2023-04-23T00:16:18;99208.56;;;8.94;45.57
62655;BME280;48717;55.556;37.816;2023-04-23T00:18:46;99219.97;;;8.96;45.76
62655;BME280;48717;55.556;37.816;2023-04-23T00:21:13;99223.47;;;8.93;46.14
62655;BME280;48717;55.556;37.816;2023-04-23T00:23:41;99210.31;;;8.95;45.73
62655;BME280;48717;55.556;37.816;2023-04-23T00:26:08;99216.44;;;8.95;45.79
62655;BME280;48717;55.556;37.816;2023-04-23T00:28:35;99229.53;;;9.06;45.68
62655;BME280;48717;55.556;37.816;2023-04-23T00:31:02;99214.69;;;8.94;45.70
62655;BME280;48717;55.556;37.816;2023-04-23T00:33:30;99230.44;;;9.00;46.09
62655;BME280;48717;55.556;37.816;2023-04-23T00:35:57;99228.69;;;8.98;46.10
62655;BME280;48717;55.556;37.816;2023-04-23T00:38:24;99219.91;;;9.04;45.62
62655;BME280;48717;55.556;37.816;2023-04-23T00:40:53;99227.81;;;9.05;45.87
62655;BME280;48717;55.556;37.816;2023-04-23T00:43:20;99232.19;;;9.05;45.81
62655;BME280;48717;55.556;37.816;2023-04-23T00:45:48;99233.06;;;9.02;45.42
62655;BME280;48717;55.556;37.816;2023-04-23T00:48:15;99234.84;;;8.97;45.94
62655;BME280;48717;55.556;37.816;2023-04-23T00:50:43;99213.84;;;8.84;45.69
62655;BME280;48717;55.556;37.816;2023-04-23T00:53:10;99201.63;;;8.75;45.91
62655;BME280;48717;55.556;37.816;2023-04-23T00:55:37;99212.16;;;8.75;46.22
62655;BME280;48717;55.556;37.816;2023-04-23T00:58:05;99217.41;;;8.77;45.84
62655;BME280;48717;55.556;37.816;2023-04-23T01:00:35;99206.03;;;8.70;46.52
62655;BME280;48717;55.556;37.816;2023-04-23T01:03:05;99208.66;;;8.72;45.52
62655;BME280;48717;55.556;37.816;2023-04-23T01:05:33;99232.25;;;8.91;45.89
62655;BME280;48717;55.556;37.816;2023-04-23T01:08:00;99245.38;;;8.94;46.13
62655;BME280;48717;55.556;37.816;2023-04-23T01:10:28;99217.41;;;8.74;45.97
62655;BME280;48717;55.556;37.816;2023-04-23T01:12:58;99215.72;;;8.54;46.79
62655;BME280;48717;55.556;37.816;2023-04-23T01:15:26;99236.72;;;8.64;46.82
62655;BME280;48717;55.556;37.816;2023-04-23T01:17:53;99241.97;;;8.60;47.04
62655;BME280;48717;55.556;37.816;2023-04-23T01:20:20;99233.22;;;8.46;47.58
62655;BME280;48717;55.556;37.816;2023-04-23T01:22:49;99245.47;;;8.44;47.70
62655;BME280;48717;55.556;37.816;2023-04-23T01:25:16;99245.47;;;8.34;48.17
62655;BME280;48717;55.556;37.816;2023-04-23T01:27:43;99243.72;;;8.38;48.15
62655;BME280;48717;55.556;37.816;2023-04-23T01:30:12;99248.97;;;8.40;48.54
62655;BME280;48717;55.556;37.816;2023-04-23T01:32:58;99256.88;;;8.35;48.90
62655;BME280;48717;55.556;37.816;2023-04-23T01:35:25;99212.22;;;8.08;48.76
62655;BME280;48717;55.556;37.816;2023-04-23T01:37:53;99225.38;;;8.02;48.68
62655;BME280;48717;55.556;37.816;2023-04-23T01:40:21;99256.88;;;8.21;48.47
62655;BME280;48717;55.556;37.816;2023-04-23T01:42:49;99214.00;;;7.84;49.07
62655;BME280;48717;55.556;37.816;2023-04-23T01:45:16;99260.38;;;8.15;49.26
62655;BME280;48717;55.556;37.816;2023-04-23T01:47:46;99263.88;;;8.16;48.83
62655;BME280;48717;55.556;37.816;2023-04-23T01:50:13;99259.50;;;8.15;48.99
62655;BME280;48717;55.556;37.816;2023-04-23T01:52:41;99255.97;;;8.09;48.93
62655;BME280;48717;55.556;37.816;2023-04-23T01:55:10;99220.09;;;7.87;49.07
62655;BME280;48717;55.556;37.816;2023-04-23T01:57:37;99233.22;;;7.85;49.42
62655;BME280;48717;55.556;37.816;2023-04-23T02:00:07;99261.22;;;7.91;49.28
62655;BME280;48717;55.556;37.816;2023-04-23T02:02:40;99266.47;;;7.81;49.66
62655;BME280;48717;55.556;37.816;2023-04-23T02:05:16;99245.47;;;7.56;50.21
62655;BME280;48717;55.556;37.816;2023-04-23T02:07:46;99270.84;;;7.71;50.44
62655;BME280;48717;55.556;37.816;2023-04-23T02:10:15;99276.09;;;7.70;50.61
62655;BME280;48717;55.556;37.816;2023-04-23T02:12:44;99175.41;;;7.13;50.21
62655;BME280;48717;55.556;37.816;2023-04-23T02:15:12;99279.59;;;7.78;50.33
62655;BME280;48717;55.556;37.816;2023-04-23T02:17:39;99265.56;;;7.62;50.05
62655;BME280;48717;55.556;37.816;2023-04-23T02:20:08;99262.94;;;7.57;50.59
62655;BME280;48717;55.556;37.816;2023-04-23T02:22:38;99266.41;;;7.47;50.94
62655;BME280;48717;55.556;37.816;2023-04-23T02:25:06;99280.41;;;7.54;51.07
62655;BME280;48717;55.556;37.816;2023-04-23T02:27:36;99227.88;;;7.18;50.84
62655;BME280;48717;55.556;37.816;2023-04-23T02:30:05;99282.19;;;7.53;50.76
62655;BME280;48717;55.556;37.816;2023-04-23T02:32:35;99287.44;;;7.56;50.49
62655;BME280;48717;55.556;37.816;2023-04-23T02:35:04;99259.38;;;7.37;50.79
62655;BME280;48717;55.556;37.816;2023-04-23T02:37:33;99289.19;;;7.61;50.43
62655;BME280;48717;55.556;37.816;2023-04-23T02:40:01;99294.47;;;7.67;50.57
62655;BME280;48717;55.556;37.816;2023-04-23T02:42:30;99295.31;;;7.64;51.08
62655;BME280;48717;55.556;37.816;2023-04-23T02:44:58;99276.91;;;7.49;51.29
62655;BME280;48717;55.556;37.816;2023-04-23T02:47:25;99272.53;;;7.40;51.40
62655;BME280;48717;55.556;37.816;2023-04-23T02:49:52;99273.41;;;7.45;51.33
62655;BME280;48717;55.556;37.816;2023-04-23T02:52:19;99297.88;;;7.47;51.40
62655;BME280;48717;55.556;37.816;2023-04-23T02:54:47;99297.91;;;7.44;51.87
62655;BME280;48717;55.556;37.816;2023-04-23T02:57:14;99290.00;;;7.42;52.20
62655;BME280;48717;55.556;37.816;2023-04-23T02:59:42;99268.13;;;7.32;51.73
62655;BME280;48717;55.556;37.816;2023-04-23T03:02:09;99304.91;;;7.48;51.84
62655;BME280;48717;55.556;37.816;2023-04-23T03:04:37;99301.41;;;7.49;51.34
62655;BME280;48717;55.556;37.816;2023-04-23T03:07:04;99271.66;;;7.41;51.47
62655;BME280;48717;55.556;37.816;2023-04-23T03:09:32;99301.41;;;7.55;51.54
62655;BME280;48717;55.556;37.816;2023-04-23T03:11:59;99304.91;;;7.54;51.50
62655;BME280;48717;55.556;37.816;2023-04-23T03:14:26;99305.78;;;7.53;51.63
62655;BME280;48717;55.556;37.816;2023-04-23T03:16:53;99292.69;;;7.56;51.41
62655;BME280;48717;55.556;37.816;2023-04-23T03:19:21;99297.06;;;7.64;51.11
62655;BME280;48717;55.556;37.816;2023-04-23T03:21:48;99325.06;;;7.74;51.25
62655;BME280;48717;55.556;37.816;2023-04-23T03:24:15;99329.44;;;7.78;51.34
62655;BME280;48717;55.556;37.816;2023-04-23T03:26:43;99322.47;;;7.77;50.90
62655;BME280;48717;55.556;37.816;2023-04-23T03:29:10;99304.97;;;7.70;51.07
62655;BME280;48717;55.556;37.816;2023-04-23T03:31:37;99314.59;;;7.76;50.79
62655;BME280;48717;55.556;37.816;2023-04-23T03:34:07;99312.00;;;7.90;50.12
62655;BME280;48717;55.556;37.816;2023-04-23T03:36:36;99326.03;;;8.07;50.14
62655;BME280;48717;55.556;37.816;2023-04-23T03:39:04;99341.78;;;8.15;50.03
62655;BME280;48717;55.556;37.816;2023-04-23T03:41:43;99321.66;;;8.06;49.67
62655;BME280;48717;55.556;37.816;2023-04-23T03:44:14;99339.19;;;8.29;49.27
62655;BME280;48717;55.556;37.816;2023-04-23T03:46:43;99333.91;;;8.35;48.93
62655;BME280;48717;55.556;37.816;2023-04-23T03:49:11;99344.44;;;8.40;48.38
62655;BME280;48717;55.556;37.816;2023-04-23T03:51:38;99334.78;;;8.44;48.71
62655;BME280;48717;55.556;37.816;2023-04-23T03:54:07;99312.91;;;8.28;48.47
62655;BME280;48717;55.556;37.816;2023-04-23T03:56:39;99339.22;;;8.53;48.59
62655;BME280;48717;55.556;37.816;2023-04-23T03:59:19;99346.19;;;8.71;48.82
62655;BME280;48717;55.556;37.816;2023-04-23T04:01:49;99333.06;;;8.68;48.39
62655;BME280;48717;55.556;37.816;2023-04-23T04:04:17;99343.56;;;8.86;47.78
62655;BME280;48717;55.556;37.816;2023-04-23T04:06:47;99319.84;;;9.00;47.40
62655;BME280;48717;55.556;37.816;2023-04-23T04:09:15;99339.91;;;9.40;47.00
62655;BME280;48717;55.556;37.816;2023-04-23T04:11:43;99369.50;;;9.89;46.18
62655;BME280;48717;55.556;37.816;2023-04-23T04:14:10;99371.94;;;10.21;45.45
62655;BME280;48717;55.556;37.816;2023-04-23T04:16:37;99308.72;;;10.21;44.85
62655;BME280;48717;55.556;37.816;2023-04-23T04:19:05;99347.00;;;10.72;44.57
62655;BME280;48717;55.556;37.816;2023-04-23T04:21:33;99357.97;;;11.17;44.19
62655;BME280;48717;55.556;37.816;2023-04-23T04:24:00;99360.69;;;11.82;42.38
62655;BME280;48717;55.556;37.816;2023-04-23T04:26:28;99340.75;;;12.25;41.29
62655;BME280;48717;55.556;37.816;2023-04-23T04:28:55;99335.19;;;12.42;40.95
62655;BME280;48717;55.556;37.816;2023-04-23T04:31:27;99361.47;;;12.51;40.35
62655;BME280;48717;55.556;37.816;2023-04-23T04:33:54;99364.72;;;12.12;40.60
62655;BME280;48717;55.556;37.816;2023-04-23T04:36:25;99341.28;;;11.86;41.80
62655;BME280;48717;55.556;37.816;2023-04-23T04:38:53;99367.66;;;11.87;42.05
62655;BME280;48717;55.556;37.816;2023-04-23T04:41:26;99373.09;;;11.77;42.79
62655;BME280;48717;55.556;37.816;2023-04-23T04:43:54;99385.59;;;11.62;42.45
62655;BME280;48717;55.556;37.816;2023-04-23T04:46:21;99380.31;;;11.62;41.58
62655;BME280;48717;55.556;37.816;2023-04-23T04:48:48;99346.19;;;11.46;41.42
62655;BME280;48717;55.556;37.816;2023-04-23T04:51:16;99379.28;;;11.75;41.41
62655;BME280;48717;55.556;37.816;2023-04-23T04:53:43;99355.69;;;11.60;41.34
62655;BME280;48717;55.556;37.816;2023-04-23T04:56:10;99386.16;;;11.89;41.49
62655;BME280;48717;55.556;37.816;2023-04-23T04:58:38;99377.41;;;11.84;40.79
62655;BME280;48717;55.556;37.816;2023-04-23T05:01:05;99360.88;;;11.69;40.42
62655;BME280;48717;55.556;37.816;2023-04-23T05:03:32;99382.59;;;11.90;40.09
62655;BME280;48717;55.556;37.816;2023-04-23T05:06:00;99375.31;;;12.11;40.66
62655;BME280;48717;55.556;37.816;2023-04-23T05:08:27;99379.97;;;12.53;39.84
62655;BME280;48717;55.556;37.816;2023-04-23T05:10:55;99343.06;;;12.47;39.77
62655;BME280;48717;55.556;37.816;2023-04-23T05:13:22;99329.34;;;12.20;40.13
62655;BME280;48717;55.556;37.816;2023-04-23T05:15:50;99361.91;;;12.23;40.48
62655;BME280;48717;55.556;37.816;2023-04-23T05:18:17;99390.88;;;12.31;40.85
62655;BME280;48717;55.556;37.816;2023-04-23T05:20:45;99398.84;;;12.85;40.13
62655;BME280;48717;55.556;37.816;2023-04-23T05:23:12;99401.72;;;13.70;38.43
62655;BME280;48717;55.556;37.816;2023-04-23T05:25:39;99393.91;;;14.43;36.59
62655;BME280;48717;55.556;37.816;2023-04-23T05:28:06;99364.09;;;15.06;34.72
62655;BME280;48717;55.556;37.816;2023-04-23T05:30:34;99394.53;;;15.59;33.49
62655;BME280;48717;55.556;37.816;2023-04-23T05:33:27;99389.81;;;16.29;32.90
62655;BME280;48717;55.556;37.816;2023-04-23T05:36:02;99403.94;;;16.60;31.49
62655;BME280;48717;55.556;37.816;2023-04-23T05:38:29;99405.63;;;16.89;31.34
62655;BME280;48717;55.556;37.816;2023-04-23T05:40:56;99377.34;;;16.85;30.63
62655;BME280;48717;55.556;37.816;2023-04-23T05:43:23;99401.41;;;17.09;31.60
62655;BME280;48717;55.556;37.816;2023-04-23T05:45:51;99383.28;;;17.20;30.70
62655;BME280;48717;55.556;37.816;2023-04-23T05:48:18;99420.78;;;17.65;30.14
62655;BME280;48717;55.556;37.816;2023-04-23T05:50:46;99380.28;;;17.79;29.40
62655;BME280;48717;55.556;37.816;2023-04-23T05:53:15;99371.84;;;17.90;29.65
62655;BME280;48717;55.556;37.816;2023-04-23T05:55:42;99382.56;;;17.65;29.25
62655;BME280;48717;55.556;37.816;2023-04-23T05:58:15;99411.78;;;17.44;29.98
62655;BME280;48717;55.556;37.816;2023-04-23T06:00:48;99404.31;;;17.01;30.67
62655;BME280;48717;55.556;37.816;2023-04-23T06:03:16;99405.00;;;16.54;30.96
62655;BME280;48717;55.556;37.816;2023-04-23T06:05:43;99398.41;;;16.37;31.12
62655;BME280;48717;55.556;37.816;2023-04-23T06:08:11;99418.06;;;16.33;31.81
62655;BME280;48717;55.556;37.816;2023-04-23T06:10:38;99415.97;;;16.14;31.63
62655;BME280;48717;55.556;37.816;2023-04-23T06:13:05;99411.94;;;16.01;31.75
62655;BME280;48717;55.556;37.816;2023-04-23T06:15:33;99393.63;;;15.90;31.45
62655;BME280;48717;55.556;37.816;2023-04-23T06:18:00;99395.78;;;16.07;31.46
62655;BME280;48717;55.556;37.816;2023-04-23T06:20:28;99404.13;;;16.25;31.26
62655;BME280;48717;55.556;37.816;2023-04-23T06:22:55;99424.75;;;16.74;30.63
62655;BME280;48717;55.556;37.816;2023-04-23T06:25:22;99425.25;;;17.39;30.44
62655;BME280;48717;55.556;37.816;2023-04-23T06:27:49;99425.47;;;18.30;28.98
62655;BME280;48717;55.556;37.816;2023-04-23T06:30:21;99420.78;;;19.02;28.14
62655;BME280;48717;55.556;37.816;2023-04-23T06:32:49;99424.44;;;19.43;27.49
62655;BME280;48717;55.556;37.816;2023-04-23T06:35:16;99425.56;;;19.37;27.01
62655;BME280;48717;55.556;37.816;2023-04-23T06:37:43;99427.94;;;19.02;27.76
62655;BME280;48717;55.556;37.816;2023-04-23T06:40:10;99397.00;;;18.75;27.57
62655;BME280;48717;55.556;37.816;2023-04-23T06:42:37;99433.00;;;18.87;28.11
62655;BME280;48717;55.556;37.816;2023-04-23T06:45:23;99429.81;;;19.00;28.08
62655;BME280;48717;55.556;37.816;2023-04-23T06:47:50;99429.66;;;18.82;27.80
62655;BME280;48717;55.556;37.816;2023-04-23T06:50:17;99419.97;;;18.79;27.28
62655;BME280;48717;55.556;37.816;2023-04-23T06:52:44;99432.84;;;19.13;26.80
62655;BME280;48717;55.556;37.816;2023-04-23T06:55:12;99418.41;;;19.17;25.75
62655;BME280;48717;55.556;37.816;2023-04-23T06:57:41;99408.38;;;19.83;25.08
62655;BME280;48717;55.556;37.816;2023-04-23T07:00:08;99403.56;;;19.51;25.06
62655;BME280;48717;55.556;37.816;2023-04-23T07:02:41;99417.75;;;19.12;25.07
62655;BME280;48717;55.556;37.816;2023-04-23T07:05:09;99438.94;;;18.94;25.42
62655;BME280;48717;55.556;37.816;2023-04-23T07:07:36;99446.28;;;18.89;25.43
62655;BME280;48717;55.556;37.816;2023-04-23T07:10:04;99439.22;;;18.88;25.15
62655;BME280;48717;55.556;37.816;2023-04-23T07:12:32;99438.25;;;19.93;23.71
62655;BME280;48717;55.556;37.816;2023-04-23T07:15:00;99416.50;;;20.39;23.34
62655;BME280;48717;55.556;37.816;2023-04-23T07:17:30;99429.66;;;21.18;22.60
62655;BME280;48717;55.556;37.816;2023-04-23T07:19:57;99433.75;;;21.25;22.41
62655;BME280;48717;55.556;37.816;2023-04-23T07:22:24;99434.94;;;21.71;22.18
62655;BME280;48717;55.556;37.816;2023-04-23T07:24:53;99418.97;;;22.35;22.27
62655;BME280;48717;55.556;37.816;2023-04-23T07:27:20;99418.09;;;22.51;21.28
62655;BME280;48717;55.556;37.816;2023-04-23T07:29:48;99429.47;;;23.03;20.29
62655;BME280;48717;55.556;37.816;2023-04-23T07:32:15;99441.31;;;22.84;20.39
62655;BME280;48717;55.556;37.816;2023-04-23T07:34:43;99407.72;;;22.45;20.48
62655;BME280;48717;55.556;37.816;2023-04-23T07:37:10;99416.91;;;22.56;20.36
62655;BME280;48717;55.556;37.816;2023-04-23T07:39:38;99445.16;;;21.46;22.02
62655;BME280;48717;55.556;37.816;2023-04-23T07:42:08;99442.13;;;21.01;22.46
62655;BME280;48717;55.556;37.816;2023-04-23T07:44:35;99444.16;;;21.13;22.54
62655;BME280;48717;55.556;37.816;2023-04-23T07:47:03;99389.84;;;20.55;22.99
62655;BME280;48717;55.556;37.816;2023-04-23T07:49:30;99444.75;;;20.83;23.19
62655;BME280;48717;55.556;37.816;2023-04-23T07:51:57;99449.78;;;20.33;24.18
62655;BME280;48717;55.556;37.816;2023-04-23T07:54:25;99452.72;;;19.89;24.23
62655;BME280;48717;55.556;37.816;2023-04-23T07:57:03;99379.78;;;19.45;23.91
62655;BME280;48717;55.556;37.816;2023-04-23T07:59:31;99434.25;;;20.42;23.35
62655;BME280;48717;55.556;37.816;2023-04-23T08:01:59;99436.03;;;20.78;21.49
62655;BME280;48717;55.556;37.816;2023-04-23T08:04:27;99430.28;;;20.88;21.44
62655;BME280;48717;55.556;37.816;2023-04-23T08:06:56;99431.75;;;20.56;21.65
62655;BME280;48717;55.556;37.816;2023-04-23T08:09:25;99438.81;;;19.80;23.21
62655;BME280;48717;55.556;37.816;2023-04-23T08:11:53;99430.53;;;19.26;23.73
62655;BME280;48717;55.556;37.816;2023-04-23T08:14:20;99439.38;;;18.61;23.48
62655;BME280;48717;55.556;37.816;2023-04-23T08:16:48;99446.47;;;18.39;24.28
62655;BME280;48717;55.556;37.816;2023-04-23T08:19:15;99454.44;;;18.17;24.44
62655;BME280;48717;55.556;37.816;2023-04-23T08:21:42;99450.59;;;18.48;24.52
62655;BME280;48717;55.556;37.816;2023-04-23T08:24:09;99411.88;;;19.24;22.60
62655;BME280;48717;55.556;37.816;2023-04-23T08:26:37;99431.59;;;20.59;21.82
62655;BME280;48717;55.556;37.816;2023-04-23T08:29:05;99429.31;;;20.52;21.60
62655;BME280;48717;55.556;37.816;2023-04-23T08:31:32;99433.53;;;20.19;21.88
62655;BME280;48717;55.556;37.816;2023-04-23T08:33:59;99447.66;;;19.82;21.81
62655;BME280;48717;55.556;37.816;2023-04-23T08:36:27;99426.84;;;19.28;22.08
62655;BME280;48717;55.556;37.816;2023-04-23T08:38:56;99435.13;;;19.22;22.47
62655;BME280;48717;55.556;37.816;2023-04-23T08:41:26;99416.41;;;19.22;22.75
62655;BME280;48717;55.556;37.816;2023-04-23T08:44:20;99439.56;;;19.01;22.63
62655;BME280;48717;55.556;37.816;2023-04-23T08:46:48;99438.03;;;19.57;22.26
62655;BME280;48717;55.556;37.816;2023-04-23T08:49:17;99424.22;;;19.88;21.81
62655;BME280;48717;55.556;37.816;2023-04-23T08:51:54;99440.41;;;19.85;20.97
62655;BME280;48717;55.556;37.816;2023-04-23T08:54:25;99440.66;;;19.59;20.75
62655;BME280;48717;55.556;37.816;2023-04-23T08:56:57;99433.63;;;19.77;21.05
62655;BME280;48717;55.556;37.816;2023-04-23T08:59:29;99424.66;;;19.78;20.95
62655;BME280;48717;55.556;37.816;2023-04-23T09:02:01;99425.09;;;19.88;21.46
62655;BME280;48717;55.556;37.816;2023-04-23T09:04:37;99413.81;;;19.81;22.47
62655;BME280;48717;55.556;37.816;2023-04-23T09:07:06;99405.31;;;19.52;22.04
62655;BME280;48717;55.556;37.816;2023-04-23T09:09:38;99429.16;;;19.97;21.64
62655;BME280;48717;55.556;37.816;2023-04-23T09:12:08;99422.72;;;20.59;20.94
62655;BME280;48717;55.556;37.816;2023-04-23T09:14:35;99411.06;;;21.32;20.19
62655;BME280;48717;55.556;37.816;2023-04-23T09:17:04;99397.97;;;21.94;19.34
62655;BME280;48717;55.556;37.816;2023-04-23T09:19:31;99379.81;;;21.99;19.04
62655;BME280;48717;55.556;37.816;2023-04-23T09:21:59;99415.00;;;21.76;19.90
62655;BME280;48717;55.556;37.816;2023-04-23T09:24:29;99410.13;;;22.01;19.85
62655;BME280;48717;55.556;37.816;2023-04-23T09:26:58;99420.28;;;23.07;18.78
62655;BME280;48717;55.556;37.816;2023-04-23T09:29:26;99403.31;;;23.81;17.65
62655;BME280;48717;55.556;37.816;2023-04-23T09:31:54;99389.91;;;24.50;17.35
62655;BME280;48717;55.556;37.816;2023-04-23T09:34:23;99415.22;;;23.91;17.36
62655;BME280;48717;55.556;37.816;2023-04-23T09:36:52;99394.44;;;23.79;17.64
62655;BME280;48717;55.556;37.816;2023-04-23T09:39:23;99408.34;;;23.42;17.96
62655;BME280;48717;55.556;37.816;2023-04-23T09:41:51;99400.41;;;23.69;17.82
62655;BME280;48717;55.556;37.816;2023-04-23T09:44:21;99378.06;;;24.25;17.34
62655;BME280;48717;55.556;37.816;2023-04-23T09:46:49;99403.22;;;24.67;17.12
62655;BME280;48717;55.556;37.816;2023-04-23T09:49:16;99391.16;;;24.87;16.61
62655;BME280;48717;55.556;37.816;2023-04-23T09:51:46;99393.50;;;24.64;16.50
62655;BME280;48717;55.556;37.816;2023-04-23T09:54:18;99404.06;;;23.68;17.17
62655;BME280;48717;55.556;37.816;2023-04-23T09:56:53;99371.19;;;23.49;17.51
62655;BME280;48717;55.556;37.816;2023-04-23T09:59:27;99391.84;;;24.48;16.89
62655;BME280;48717;55.556;37.816;2023-04-23T10:02:13;99380.94;;;24.77;16.19
62655;BME280;48717;55.556;37.816;2023-04-23T10:04:40;99384.53;;;25.58;15.46
62655;BME280;48717;55.556;37.816;2023-04-23T10:07:08;99378.69;;;25.77;15.76
62655;BME280;48717;55.556;37.816;2023-04-23T10:09:42;99360.78;;;25.63;15.51
62655;BME280;48717;55.556;37.816;2023-04-23T10:12:10;99355.66;;;24.93;16.19
62655;BME280;48717;55.556;37.816;2023-04-23T10:14:59;99386.53;;;24.19;16.73
62655;BME280;48717;55.556;37.816;2023-04-23T10:17:26;99384.53;;;23.05;17.36
62655;BME280;48717;55.556;37.816;2023-04-23T10:19:54;99391.69;;;21.95;18.06
62655;BME280;48717;55.556;37.816;2023-04-23T10:22:21;99400.03;;;21.72;18.78
62655;BME280;48717;55.556;37.816;2023-04-23T10:24:52;99399.22;;;21.36;18.80
62655;BME280;48717;55.556;37.816;2023-04-23T10:27:29;99404.41;;;22.39;18.04
62655;BME280;48717;55.556;37.816;2023-04-23T10:30:17;99372.84;;;23.66;17.13
62655;BME280;48717;55.556;37.816;2023-04-23T10:32:48;99380.28;;;24.74;16.15
62655;BME280;48717;55.556;37.816;2023-04-23T10:35:16;99334.16;;;24.79;15.89
62655;BME280;48717;55.556;37.816;2023-04-23T10:37:44;99379.13;;;25.45;15.43
62655;BME280;48717;55.556;37.816;2023-04-23T10:40:18;99393.22;;;24.82;15.96
62655;BME280;48717;55.556;37.816;2023-04-23T10:42:48;99377.28;;;24.23;16.25
62655;BME280;48717;55.556;37.816;2023-04-23T10:45:20;99310.84;;;24.77;15.76
62655;BME280;48717;55.556;37.816;2023-04-23T10:47:53;99383.22;;;25.24;15.43
62655;BME280;48717;55.556;37.816;2023-04-23T10:50:28;99366.47;;;26.22;14.67
62655;BME280;48717;55.556;37.816;2023-04-23T10:52:56;99365.31;;;27.22;14.04
62655;BME280;48717;55.556;37.816;2023-04-23T10:55:29;99360.34;;;27.63;13.52
62655;BME280;48717;55.556;37.816;2023-04-23T11:03:37;99359.78;;;26.27;14.95
62655;BME280;48717;55.556;37.816;2023-04-23T11:06:19;99352.63;;;26.75;14.58
62655;BME280;48717;55.556;37.816;2023-04-23T11:08:51;99349.91;;;26.02;14.79
62655;BME280;48717;55.556;37.816;2023-04-23T11:11:39;99354.13;;;25.93;15.27
62655;BME280;48717;55.556;37.816;2023-04-23T11:14:11;99352.41;;;26.78;14.74
62655;BME280;48717;55.556;37.816;2023-04-23T11:16:42;99334.13;;;27.75;13.59
62655;BME280;48717;55.556;37.816;2023-04-23T11:19:10;99319.56;;;28.76;12.79
62655;BME280;48717;55.556;37.816;2023-04-23T11:22:04;99315.34;;;29.57;12.05
62655;BME280;48717;55.556;37.816;2023-04-23T11:24:40;99353.91;;;28.54;13.21
62655;BME280;48717;55.556;37.816;2023-04-23T11:27:12;99350.19;;;26.48;13.65
62655;BME280;48717;55.556;37.816;2023-04-23T11:29:41;99330.63;;;26.06;14.80
62655;BME280;48717;55.556;37.816;2023-04-23T11:32:10;99322.41;;;26.81;14.10
62655;BME280;48717;55.556;37.816;2023-04-23T11:34:40;99346.00;;;26.06;14.39
62655;BME280;48717;55.556;37.816;2023-04-23T11:37:10;99341.97;;;25.48;15.38
62655;BME280;48717;55.556;37.816;2023-04-23T11:39:41;99333.41;;;26.18;14.97
62655;BME280;48717;55.556;37.816;2023-04-23T11:42:11;99337.03;;;26.43;14.38
62655;BME280;48717;55.556;37.816;2023-04-23T11:44:40;99336.22;;;27.83;13.63
62655;BME280;48717;55.556;37.816;2023-04-23T11:47:13;99319.50;;;28.87;12.70
62655;BME280;48717;55.556;37.816;2023-04-23T11:49:42;99321.84;;;29.44;12.33
62655;BME280;48717;55.556;37.816;2023-04-23T11:52:10;99335.97;;;28.41;12.74
62655;BME280;48717;55.556;37.816;2023-04-23T11:54:41;99328.91;;;28.29;12.86
62655;BME280;48717;55.556;37.816;2023-04-23T11:57:08;99328.22;;;27.35;13.27
62655;BME280;48717;55.556;37.816;2023-04-23T11:59:36;99342.53;;;26.66;14.10
62655;BME280;48717;55.556;37.816;2023-04-23T12:02:04;99316.13;;;27.51;13.73
62655;BME280;48717;55.556;37.816;2023-04-23T12:04:32;99333.47;;;28.50;12.78
62655;BME280;48717;55.556;37.816;2023-04-23T12:06:59;99352.00;;;28.45;12.79
62655;BME280;48717;55.556;37.816;2023-04-23T12:09:33;99336.88;;;27.05;13.39
62655;BME280;48717;55.556;37.816;2023-04-23T12:12:02;99352.28;;;26.55;14.01
62655;BME280;48717;55.556;37.816;2023-04-23T12:14:29;99345.72;;;26.22;14.15
62655;BME280;48717;55.556;37.816;2023-04-23T12:16:57;99338.06;;;26.53;13.99
62655;BME280;48717;55.556;37.816;2023-04-23T12:19:34;99328.81;;;25.70;14.50
62655;BME280;48717;55.556;37.816;2023-04-23T12:22:02;99326.53;;;26.63;14.21
62655;BME280;48717;55.556;37.816;2023-04-23T12:24:47;99334.13;;;26.93;13.68
62655;BME280;48717;55.556;37.816;2023-04-23T12:27:18;99334.78;;;26.97;13.75
62655;BME280;48717;55.556;37.816;2023-04-23T12:29:48;99322.16;;;27.20;14.01
62655;BME280;48717;55.556;37.816;2023-04-23T12:32:17;99294.34;;;28.43;13.00
62655;BME280;48717;55.556;37.816;2023-04-23T12:34:52;99282.66;;;29.68;12.33
62655;BME280;48717;55.556;37.816;2023-04-23T12:37:29;99297.81;;;30.52;11.41
62655;BME280;48717;55.556;37.816;2023-04-23T12:39:56;99292.78;;;30.57;11.20
62655;BME280;48717;55.556;37.816;2023-04-23T12:42:25;99324.06;;;28.21;12.71
62655;BME280;48717;55.556;37.816;2023-04-23T12:44:53;99309.47;;;27.44;13.24
62655;BME280;48717;55.556;37.816;2023-04-23T12:47:22;99305.88;;;28.99;12.65
62655;BME280;48717;55.556;37.816;2023-04-23T12:49:50;99289.63;;;30.12;11.76
62655;BME280;48717;55.556;37.816;2023-04-23T12:52:21;99316.88;;;29.18;12.26
62655;BME280;48717;55.556;37.816;2023-04-23T12:54:49;99296.78;;;29.00;12.48
62655;BME280;48717;55.556;37.816;2023-04-23T12:57:22;99286.84;;;27.79;13.03
62655;BME280;48717;55.556;37.816;2023-04-23T12:59:50;99318.22;;;27.13;13.48
62655;BME280;48717;55.556;37.816;2023-04-23T13:02:18;99318.31;;;27.00;13.84
62655;BME280;48717;55.556;37.816;2023-04-23T13:04:45;99311.59;;;26.81;13.87
62655;BME280;48717;55.556;37.816;2023-04-23T13:07:13;99313.69;;;26.78;13.97
62655;BME280;48717;55.556;37.816;2023-04-23T13:09:40;99301.84;;;27.26;13.90